sensor_id;sensor_type;location;lat;lon;timestamp;P1;durP1;ratioP1;P2;durP2;ratioP2
21272;SDS011;36726;52.328;10.552;2023-04-19T00:02:20;3.08;;;2.08;;
21272;SDS011;36726;52.328;10.552;2023-04-19T00:04:48;3.40;;;1.90;;
21272;SDS011;36726;52.328;10.552;2023-04-19T00:07:15;5.88;;;2.20;;
21272;SDS011;36726;52.328;10.552;2023-04-19T00:09:43;4.45;;;2.28;;
21272;SDS011;36726;52.328;10.552;2023-04-19T00:12:10;5.35;;;2.63;;
21272;SDS011;36726;52.328;10.552;2023-04-19T00:14:37;5.22;;;2.70;;
21272;SDS011;36726;52.328;10.552;2023-04-19T00:17:03;5.05;;;2.40;;
21272;SDS011;36726;52.328;10.552;2023-04-19T00:19:30;3.30;;;2.10;;
21272;SDS011;36726;52.328;10.552;2023-04-19T00:21:57;2.75;;;2.00;;
21272;SDS011;36726;52.328;10.552;2023-04-19T00:24:24;3.70;;;2.05;;
21272;SDS011;36726;52.328;10.552;2023-04-19T00:26:51;5.28;;;2.30;;
21272;SDS011;36726;52.328;10.552;2023-04-19T00:29:17;8.48;;;2.53;;
21272;SDS011;36726;52.328;10.552;2023-04-19T00:31:44;4.30;;;2.22;;
21272;SDS011;36726;52.328;10.552;2023-04-19T00:34:10;7.63;;;2.30;;
21272;SDS011;36726;52.328;10.552;2023-04-19T00:36:37;4.05;;;2.40;;
21272;SDS011;36726;52.328;10.552;2023-04-19T00:39:05;5.25;;;2.38;;
21272;SDS011;36726;52.328;10.552;2023-04-19T00:41:31;6.10;;;2.45;;
21272;SDS011;36726;52.328;10.552;2023-04-19T00:43:58;4.35;;;2.50;;
21272;SDS011;36726;52.328;10.552;2023-04-19T00:46:25;2.78;;;1.88;;
21272;SDS011;36726;52.328;10.552;2023-04-19T00:48:52;3.20;;;1.88;;
21272;SDS011;36726;52.328;10.552;2023-04-19T00:51:20;5.05;;;2.50;;
21272;SDS011;36726;52.328;10.552;2023-04-19T00:53:47;4.85;;;2.40;;
21272;SDS011;36726;52.328;10.552;2023-04-19T00:56:17;4.20;;;2.40;;
21272;SDS011;36726;52.328;10.552;2023-04-19T00:58:52;5.60;;;2.28;;
21272;SDS011;36726;52.328;10.552;2023-04-19T01:01:19;7.50;;;2.58;;
21272;SDS011;36726;52.328;10.552;2023-04-19T01:03:47;4.15;;;2.28;;
21272;SDS011;36726;52.328;10.552;2023-04-19T01:06:14;4.65;;;2.45;;
21272;SDS011;36726;52.328;10.552;2023-04-19T01:08:41;4.68;;;2.53;;
21272;SDS011;36726;52.328;10.552;2023-04-19T01:11:07;7.53;;;2.28;;
21272;SDS011;36726;52.328;10.552;2023-04-19T01:13:35;7.05;;;2.50;;
21272;SDS011;36726;52.328;10.552;2023-04-19T01:16:02;9.77;;;2.50;;
21272;SDS011;36726;52.328;10.552;2023-04-19T01:18:28;8.57;;;2.47;;
21272;SDS011;36726;52.328;10.552;2023-04-19T01:21:00;3.22;;;2.05;;
21272;SDS011;36726;52.328;10.552;2023-04-19T01:23:27;3.95;;;2.15;;
21272;SDS011;36726;52.328;10.552;2023-04-19T01:25:54;4.97;;;2.50;;
21272;SDS011;36726;52.328;10.552;2023-04-19T01:28:21;5.13;;;2.53;;
21272;SDS011;36726;52.328;10.552;2023-04-19T01:30:48;6.88;;;2.67;;
21272;SDS011;36726;52.328;10.552;2023-04-19T01:33:17;3.90;;;2.42;;
21272;SDS011;36726;52.328;10.552;2023-04-19T01:35:45;4.55;;;2.40;;
21272;SDS011;36726;52.328;10.552;2023-04-19T01:38:13;9.77;;;2.47;;
21272;SDS011;36726;52.328;10.552;2023-04-19T01:40:40;5.07;;;2.58;;
21272;SDS011;36726;52.328;10.552;2023-04-19T01:43:06;4.30;;;2.50;;
21272;SDS011;36726;52.328;10.552;2023-04-19T01:45:33;3.15;;;2.22;;
21272;SDS011;36726;52.328;10.552;2023-04-19T01:48:01;4.55;;;2.55;;
21272;SDS011;36726;52.328;10.552;2023-04-19T01:50:32;8.48;;;2.67;;
21272;SDS011;36726;52.328;10.552;2023-04-19T01:52:59;4.78;;;2.67;;
21272;SDS011;36726;52.328;10.552;2023-04-19T01:55:26;5.75;;;2.45;;
21272;SDS011;36726;52.328;10.552;2023-04-19T01:57:53;6.15;;;2.50;;
21272;SDS011;36726;52.328;10.552;2023-04-19T02:00:21;3.72;;;2.05;;
21272;SDS011;36726;52.328;10.552;2023-04-19T02:02:48;5.35;;;2.25;;
21272;SDS011;36726;52.328;10.552;2023-04-19T02:05:15;4.88;;;3.03;;
21272;SDS011;36726;52.328;10.552;2023-04-19T02:07:42;4.22;;;2.83;;
21272;SDS011;36726;52.328;10.552;2023-04-19T02:10:10;3.15;;;2.22;;
21272;SDS011;36726;52.328;10.552;2023-04-19T02:12:36;4.30;;;2.30;;
21272;SDS011;36726;52.328;10.552;2023-04-19T02:15:03;4.55;;;2.47;;
21272;SDS011;36726;52.328;10.552;2023-04-19T02:17:32;5.20;;;2.65;;
21272;SDS011;36726;52.328;10.552;2023-04-19T02:19:59;7.72;;;2.50;;
21272;SDS011;36726;52.328;10.552;2023-04-19T02:22:26;4.68;;;2.58;;
21272;SDS011;36726;52.328;10.552;2023-04-19T02:24:53;4.10;;;2.40;;
21272;SDS011;36726;52.328;10.552;2023-04-19T02:27:25;3.03;;;2.20;;
21272;SDS011;36726;52.328;10.552;2023-04-19T02:29:52;2.85;;;2.13;;
21272;SDS011;36726;52.328;10.552;2023-04-19T02:32:19;3.75;;;2.38;;
21272;SDS011;36726;52.328;10.552;2023-04-19T02:34:46;3.65;;;2.30;;
21272;SDS011;36726;52.328;10.552;2023-04-19T02:37:13;5.45;;;2.33;;
21272;SDS011;36726;52.328;10.552;2023-04-19T02:39:39;4.55;;;2.70;;
21272;SDS011;36726;52.328;10.552;2023-04-19T02:42:07;3.72;;;2.13;;
21272;SDS011;36726;52.328;10.552;2023-04-19T02:44:34;3.92;;;2.47;;
21272;SDS011;36726;52.328;10.552;2023-04-19T02:47:01;5.72;;;2.22;;
21272;SDS011;36726;52.328;10.552;2023-04-19T02:49:29;5.63;;;2.42;;
21272;SDS011;36726;52.328;10.552;2023-04-19T02:52:00;5.07;;;2.55;;
21272;SDS011;36726;52.328;10.552;2023-04-19T02:54:27;5.03;;;2.20;;
21272;SDS011;36726;52.328;10.552;2023-04-19T02:56:55;6.43;;;2.55;;
21272;SDS011;36726;52.328;10.552;2023-04-19T02:59:22;5.00;;;2.38;;
21272;SDS011;36726;52.328;10.552;2023-04-19T03:01:49;4.45;;;2.58;;
21272;SDS011;36726;52.328;10.552;2023-04-19T03:04:16;5.68;;;2.15;;
21272;SDS011;36726;52.328;10.552;2023-04-19T03:06:43;6.38;;;2.30;;
21272;SDS011;36726;52.328;10.552;2023-04-19T03:09:11;4.05;;;2.20;;
21272;SDS011;36726;52.328;10.552;2023-04-19T03:11:37;4.35;;;2.42;;
21272;SDS011;36726;52.328;10.552;2023-04-19T03:14:04;5.38;;;2.65;;
21272;SDS011;36726;52.328;10.552;2023-04-19T03:16:31;8.13;;;2.45;;
21272;SDS011;36726;52.328;10.552;2023-04-19T03:18:58;5.00;;;2.22;;
21272;SDS011;36726;52.328;10.552;2023-04-19T03:21:29;4.25;;;2.20;;
21272;SDS011;36726;52.328;10.552;2023-04-19T03:23:56;8.50;;;2.58;;
21272;SDS011;36726;52.328;10.552;2023-04-19T03:26:23;4.35;;;2.25;;
21272;SDS011;36726;52.328;10.552;2023-04-19T03:28:52;5.03;;;2.20;;
21272;SDS011;36726;52.328;10.552;2023-04-19T03:31:48;5.55;;;2.22;;
21272;SDS011;36726;52.328;10.552;2023-04-19T03:34:16;5.68;;;2.45;;
21272;SDS011;36726;52.328;10.552;2023-04-19T03:36:45;6.30;;;2.38;;
21272;SDS011;36726;52.328;10.552;2023-04-19T03:39:12;5.93;;;2.30;;
21272;SDS011;36726;52.328;10.552;2023-04-19T03:41:41;4.18;;;2.30;;
21272;SDS011;36726;52.328;10.552;2023-04-19T03:44:21;7.07;;;2.10;;
21272;SDS011;36726;52.328;10.552;2023-04-19T03:46:48;4.20;;;2.60;;
21272;SDS011;36726;52.328;10.552;2023-04-19T03:49:19;4.18;;;2.20;;
21272;SDS011;36726;52.328;10.552;2023-04-19T03:51:50;5.15;;;2.30;;
21272;SDS011;36726;52.328;10.552;2023-04-19T03:54:17;4.13;;;2.08;;
21272;SDS011;36726;52.328;10.552;2023-04-19T03:56:44;5.03;;;2.72;;
21272;SDS011;36726;52.328;10.552;2023-04-19T03:59:11;3.75;;;2.58;;
21272;SDS011;36726;52.328;10.552;2023-04-19T04:01:38;4.10;;;2.03;;
21272;SDS011;36726;52.328;10.552;2023-04-19T04:04:08;5.63;;;2.45;;
21272;SDS011;36726;52.328;10.552;2023-04-19T04:06:35;6.20;;;2.60;;
21272;SDS011;36726;52.328;10.552;2023-04-19T04:09:02;6.00;;;2.25;;
21272;SDS011;36726;52.328;10.552;2023-04-19T04:11:29;6.05;;;2.60;;
21272;SDS011;36726;52.328;10.552;2023-04-19T04:13:56;4.72;;;2.63;;
21272;SDS011;36726;52.328;10.552;2023-04-19T04:16:26;4.63;;;2.33;;
21272;SDS011;36726;52.328;10.552;2023-04-19T04:18:54;4.45;;;2.00;;
21272;SDS011;36726;52.328;10.552;2023-04-19T04:21:24;5.57;;;2.75;;
21272;SDS011;36726;52.328;10.552;2023-04-19T04:23:54;3.78;;;2.47;;
21272;SDS011;36726;52.328;10.552;2023-04-19T04:26:29;4.78;;;2.90;;
21272;SDS011;36726;52.328;10.552;2023-04-19T04:29:12;3.97;;;2.50;;
21272;SDS011;36726;52.328;10.552;2023-04-19T04:31:40;6.40;;;2.78;;
21272;SDS011;36726;52.328;10.552;2023-04-19T04:34:08;5.50;;;2.90;;
21272;SDS011;36726;52.328;10.552;2023-04-19T04:36:42;5.63;;;2.13;;
21272;SDS011;36726;52.328;10.552;2023-04-19T04:39:09;5.45;;;2.22;;
21272;SDS011;36726;52.328;10.552;2023-04-19T04:41:37;5.35;;;2.50;;
21272;SDS011;36726;52.328;10.552;2023-04-19T04:44:07;6.97;;;3.00;;
21272;SDS011;36726;52.328;10.552;2023-04-19T04:46:48;6.68;;;2.95;;
21272;SDS011;36726;52.328;10.552;2023-04-19T04:49:21;5.35;;;2.70;;
21272;SDS011;36726;52.328;10.552;2023-04-19T04:51:48;4.30;;;2.83;;
21272;SDS011;36726;52.328;10.552;2023-04-19T04:54:15;4.93;;;3.13;;
21272;SDS011;36726;52.328;10.552;2023-04-19T04:56:43;5.32;;;2.53;;
21272;SDS011;36726;52.328;10.552;2023-04-19T04:59:11;5.72;;;3.00;;
21272;SDS011;36726;52.328;10.552;2023-04-19T05:01:41;3.50;;;2.50;;
21272;SDS011;36726;52.328;10.552;2023-04-19T05:04:08;6.22;;;3.10;;
21272;SDS011;36726;52.328;10.552;2023-04-19T05:06:35;5.13;;;2.60;;
21272;SDS011;36726;52.328;10.552;2023-04-19T05:09:02;5.47;;;2.67;;
21272;SDS011;36726;52.328;10.552;2023-04-19T05:11:31;5.28;;;2.60;;
21272;SDS011;36726;52.328;10.552;2023-04-19T05:13:59;4.80;;;2.33;;
21272;SDS011;36726;52.328;10.552;2023-04-19T05:16:26;6.50;;;2.70;;
21272;SDS011;36726;52.328;10.552;2023-04-19T05:18:54;5.03;;;2.50;;
21272;SDS011;36726;52.328;10.552;2023-04-19T05:21:22;3.75;;;2.40;;
21272;SDS011;36726;52.328;10.552;2023-04-19T05:23:49;4.45;;;2.70;;
21272;SDS011;36726;52.328;10.552;2023-04-19T05:26:19;3.92;;;2.17;;
21272;SDS011;36726;52.328;10.552;2023-04-19T05:28:47;5.15;;;2.70;;
21272;SDS011;36726;52.328;10.552;2023-04-19T05:31:20;9.45;;;2.30;;
21272;SDS011;36726;52.328;10.552;2023-04-19T05:34:05;7.30;;;2.80;;
21272;SDS011;36726;52.328;10.552;2023-04-19T05:36:31;6.53;;;2.58;;
21272;SDS011;36726;52.328;10.552;2023-04-19T05:38:58;4.47;;;2.22;;
21272;SDS011;36726;52.328;10.552;2023-04-19T05:41:24;6.28;;;2.38;;
21272;SDS011;36726;52.328;10.552;2023-04-19T05:43:51;3.42;;;2.03;;
21272;SDS011;36726;52.328;10.552;2023-04-19T05:46:19;3.67;;;2.13;;
21272;SDS011;36726;52.328;10.552;2023-04-19T05:48:45;3.47;;;2.00;;
21272;SDS011;36726;52.328;10.552;2023-04-19T05:51:38;4.22;;;2.17;;
21272;SDS011;36726;52.328;10.552;2023-04-19T05:54:09;4.47;;;2.33;;
21272;SDS011;36726;52.328;10.552;2023-04-19T05:56:39;3.67;;;1.88;;
21272;SDS011;36726;52.328;10.552;2023-04-19T05:59:06;3.33;;;1.80;;
21272;SDS011;36726;52.328;10.552;2023-04-19T06:01:33;4.25;;;1.83;;
21272;SDS011;36726;52.328;10.552;2023-04-19T06:04:01;4.60;;;1.98;;
21272;SDS011;36726;52.328;10.552;2023-04-19T06:06:28;7.03;;;2.20;;
21272;SDS011;36726;52.328;10.552;2023-04-19T06:08:54;4.20;;;1.85;;
21272;SDS011;36726;52.328;10.552;2023-04-19T06:11:21;2.58;;;1.67;;
21272;SDS011;36726;52.328;10.552;2023-04-19T06:14:00;2.95;;;1.67;;
21272;SDS011;36726;52.328;10.552;2023-04-19T06:16:27;3.33;;;1.65;;
21272;SDS011;36726;52.328;10.552;2023-04-19T06:18:54;2.28;;;1.58;;
21272;SDS011;36726;52.328;10.552;2023-04-19T06:21:20;2.92;;;1.65;;
21272;SDS011;36726;52.328;10.552;2023-04-19T06:23:47;2.60;;;1.42;;
21272;SDS011;36726;52.328;10.552;2023-04-19T06:26:13;2.97;;;1.38;;
21272;SDS011;36726;52.328;10.552;2023-04-19T06:28:40;3.53;;;1.55;;
21272;SDS011;36726;52.328;10.552;2023-04-19T06:31:06;4.95;;;1.60;;
21272;SDS011;36726;52.328;10.552;2023-04-19T06:33:33;4.63;;;1.60;;
21272;SDS011;36726;52.328;10.552;2023-04-19T06:35:59;2.53;;;1.30;;
21272;SDS011;36726;52.328;10.552;2023-04-19T06:38:26;3.58;;;1.30;;
21272;SDS011;36726;52.328;10.552;2023-04-19T06:40:53;3.25;;;1.27;;
21272;SDS011;36726;52.328;10.552;2023-04-19T06:43:19;3.80;;;1.30;;
21272;SDS011;36726;52.328;10.552;2023-04-19T06:45:46;3.10;;;1.50;;
21272;SDS011;36726;52.328;10.552;2023-04-19T06:48:14;3.88;;;1.33;;
21272;SDS011;36726;52.328;10.552;2023-04-19T06:50:43;1.90;;;1.17;;
21272;SDS011;36726;52.328;10.552;2023-04-19T06:53:10;2.53;;;1.48;;
21272;SDS011;36726;52.328;10.552;2023-04-19T06:55:36;2.92;;;1.45;;
21272;SDS011;36726;52.328;10.552;2023-04-19T06:58:03;2.20;;;1.35;;
21272;SDS011;36726;52.328;10.552;2023-04-19T07:00:29;1.67;;;1.27;;
21272;SDS011;36726;52.328;10.552;2023-04-19T07:02:56;2.10;;;1.60;;
21272;SDS011;36726;52.328;10.552;2023-04-19T07:05:25;3.08;;;1.45;;
21272;SDS011;36726;52.328;10.552;2023-04-19T07:07:52;2.88;;;1.48;;
21272;SDS011;36726;52.328;10.552;2023-04-19T07:10:18;2.38;;;1.67;;
21272;SDS011;36726;52.328;10.552;2023-04-19T07:12:45;2.97;;;1.70;;
21272;SDS011;36726;52.328;10.552;2023-04-19T07:15:11;1.52;;;1.23;;
21272;SDS011;36726;52.328;10.552;2023-04-19T07:17:38;2.30;;;1.48;;
21272;SDS011;36726;52.328;10.552;2023-04-19T07:20:05;1.92;;;1.50;;
21272;SDS011;36726;52.328;10.552;2023-04-19T07:22:32;2.92;;;1.50;;
21272;SDS011;36726;52.328;10.552;2023-04-19T07:24:59;2.22;;;1.30;;
21272;SDS011;36726;52.328;10.552;2023-04-19T07:27:26;1.83;;;1.33;;
21272;SDS011;36726;52.328;10.552;2023-04-19T07:29:52;2.35;;;1.40;;
21272;SDS011;36726;52.328;10.552;2023-04-19T07:32:19;2.90;;;1.70;;
21272;SDS011;36726;52.328;10.552;2023-04-19T07:34:47;3.13;;;1.60;;
21272;SDS011;36726;52.328;10.552;2023-04-19T07:37:14;3.85;;;1.73;;
21272;SDS011;36726;52.328;10.552;2023-04-19T07:39:40;2.20;;;1.40;;
21272;SDS011;36726;52.328;10.552;2023-04-19T07:42:07;1.60;;;1.23;;
21272;SDS011;36726;52.328;10.552;2023-04-19T07:44:33;2.55;;;1.40;;
21272;SDS011;36726;52.328;10.552;2023-04-19T07:47:00;1.88;;;1.30;;
21272;SDS011;36726;52.328;10.552;2023-04-19T07:49:26;2.63;;;1.55;;
21272;SDS011;36726;52.328;10.552;2023-04-19T07:51:54;2.33;;;1.23;;
21272;SDS011;36726;52.328;10.552;2023-04-19T07:54:21;1.75;;;1.40;;
21272;SDS011;36726;52.328;10.552;2023-04-19T07:56:48;2.55;;;1.40;;
21272;SDS011;36726;52.328;10.552;2023-04-19T07:59:14;1.90;;;1.27;;
21272;SDS011;36726;52.328;10.552;2023-04-19T08:01:41;2.95;;;1.30;;
21272;SDS011;36726;52.328;10.552;2023-04-19T08:04:08;4.38;;;1.70;;
21272;SDS011;36726;52.328;10.552;2023-04-19T08:06:36;2.50;;;1.52;;
21272;SDS011;36726;52.328;10.552;2023-04-19T08:09:04;4.93;;;1.27;;
21272;SDS011;36726;52.328;10.552;2023-04-19T08:11:30;2.42;;;1.20;;
21272;SDS011;36726;52.328;10.552;2023-04-19T08:13:57;2.08;;;1.33;;
21272;SDS011;36726;52.328;10.552;2023-04-19T08:16:40;5.90;;;1.27;;
21272;SDS011;36726;52.328;10.552;2023-04-19T08:19:26;2.75;;;1.35;;
21272;SDS011;36726;52.328;10.552;2023-04-19T08:21:53;2.20;;;1.38;;
21272;SDS011;36726;52.328;10.552;2023-04-19T08:24:20;3.38;;;1.40;;
21272;SDS011;36726;52.328;10.552;2023-04-19T08:26:47;4.90;;;1.40;;
21272;SDS011;36726;52.328;10.552;2023-04-19T08:29:19;4.30;;;1.45;;
21272;SDS011;36726;52.328;10.552;2023-04-19T08:31:47;3.22;;;1.77;;
21272;SDS011;36726;52.328;10.552;2023-04-19T08:34:14;2.78;;;1.52;;
21272;SDS011;36726;52.328;10.552;2023-04-19T08:36:42;3.25;;;1.52;;
21272;SDS011;36726;52.328;10.552;2023-04-19T08:39:25;2.80;;;1.45;;
21272;SDS011;36726;52.328;10.552;2023-04-19T08:42:02;4.38;;;1.42;;
21272;SDS011;36726;52.328;10.552;2023-04-19T08:44:54;2.05;;;1.63;;
21272;SDS011;36726;52.328;10.552;2023-04-19T08:47:43;5.25;;;1.40;;
21272;SDS011;36726;52.328;10.552;2023-04-19T08:50:26;2.25;;;1.48;;
21272;SDS011;36726;52.328;10.552;2023-04-19T08:53:03;2.00;;;1.42;;
21272;SDS011;36726;52.328;10.552;2023-04-19T08:55:49;4.38;;;1.38;;
21272;SDS011;36726;52.328;10.552;2023-04-19T08:58:36;3.28;;;1.50;;
21272;SDS011;36726;52.328;10.552;2023-04-19T09:01:23;1.75;;;1.00;;
21272;SDS011;36726;52.328;10.552;2023-04-19T09:03:53;3.40;;;1.30;;
21272;SDS011;36726;52.328;10.552;2023-04-19T09:06:22;1.45;;;1.13;;
21272;SDS011;36726;52.328;10.552;2023-04-19T09:08:49;5.22;;;1.50;;
21272;SDS011;36726;52.328;10.552;2023-04-19T09:11:34;1.95;;;1.30;;
21272;SDS011;36726;52.328;10.552;2023-04-19T09:14:13;2.17;;;1.35;;
21272;SDS011;36726;52.328;10.552;2023-04-19T09:16:41;3.22;;;1.35;;
21272;SDS011;36726;52.328;10.552;2023-04-19T09:19:07;2.30;;;1.33;;
21272;SDS011;36726;52.328;10.552;2023-04-19T09:21:49;2.78;;;1.48;;
21272;SDS011;36726;52.328;10.552;2023-04-19T09:24:17;3.60;;;1.52;;
21272;SDS011;36726;52.328;10.552;2023-04-19T09:26:52;4.07;;;1.42;;
21272;SDS011;36726;52.328;10.552;2023-04-19T09:29:20;1.58;;;1.20;;
21272;SDS011;36726;52.328;10.552;2023-04-19T09:31:56;3.63;;;1.30;;
21272;SDS011;36726;52.328;10.552;2023-04-19T09:34:24;1.55;;;1.27;;
21272;SDS011;36726;52.328;10.552;2023-04-19T09:36:51;3.72;;;1.58;;
21272;SDS011;36726;52.328;10.552;2023-04-19T09:39:34;8.27;;;1.55;;
21272;SDS011;36726;52.328;10.552;2023-04-19T09:42:03;1.98;;;1.10;;
21272;SDS011;36726;52.328;10.552;2023-04-19T09:44:32;3.17;;;1.45;;
21272;SDS011;36726;52.328;10.552;2023-04-19T09:47:20;3.63;;;1.50;;
21272;SDS011;36726;52.328;10.552;2023-04-19T09:50:10;2.38;;;1.42;;
21272;SDS011;36726;52.328;10.552;2023-04-19T09:52:49;2.17;;;1.08;;
21272;SDS011;36726;52.328;10.552;2023-04-19T09:55:17;1.58;;;1.20;;
21272;SDS011;36726;52.328;10.552;2023-04-19T09:57:48;1.92;;;1.42;;
21272;SDS011;36726;52.328;10.552;2023-04-19T10:00:15;2.72;;;1.40;;
21272;SDS011;36726;52.328;10.552;2023-04-19T10:02:42;4.57;;;1.58;;
21272;SDS011;36726;52.328;10.552;2023-04-19T10:05:10;3.22;;;1.45;;
21272;SDS011;36726;52.328;10.552;2023-04-19T10:07:47;2.97;;;1.42;;
21272;SDS011;36726;52.328;10.552;2023-04-19T10:10:15;5.80;;;1.40;;
21272;SDS011;36726;52.328;10.552;2023-04-19T10:12:47;9.15;;;1.38;;
21272;SDS011;36726;52.328;10.552;2023-04-19T10:15:36;3.20;;;1.40;;
21272;SDS011;36726;52.328;10.552;2023-04-19T10:18:06;2.83;;;1.30;;
21272;SDS011;36726;52.328;10.552;2023-04-19T10:20:42;2.40;;;1.50;;
21272;SDS011;36726;52.328;10.552;2023-04-19T10:23:14;6.03;;;1.50;;
21272;SDS011;36726;52.328;10.552;2023-04-19T10:25:46;4.22;;;1.35;;
21272;SDS011;36726;52.328;10.552;2023-04-19T10:28:16;3.25;;;1.45;;
21272;SDS011;36726;52.328;10.552;2023-04-19T10:31:02;2.03;;;1.00;;
21272;SDS011;36726;52.328;10.552;2023-04-19T10:33:30;8.77;;;1.25;;
21272;SDS011;36726;52.328;10.552;2023-04-19T10:36:01;1.27;;;1.10;;
21272;SDS011;36726;52.328;10.552;2023-04-19T10:38:41;1.95;;;1.17;;
21272;SDS011;36726;52.328;10.552;2023-04-19T10:41:10;3.28;;;1.10;;
21272;SDS011;36726;52.328;10.552;2023-04-19T10:43:45;3.08;;;1.15;;
21272;SDS011;36726;52.328;10.552;2023-04-19T10:48:50;1.90;;;1.20;;
21272;SDS011;36726;52.328;10.552;2023-04-19T10:51:21;4.45;;;1.30;;
21272;SDS011;36726;52.328;10.552;2023-04-19T10:53:54;2.38;;;0.80;;
21272;SDS011;36726;52.328;10.552;2023-04-19T11:01:39;2.72;;;1.30;;
21272;SDS011;36726;52.328;10.552;2023-04-19T11:04:07;1.85;;;1.00;;
21272;SDS011;36726;52.328;10.552;2023-04-19T11:09:38;3.13;;;1.17;;
21272;SDS011;36726;52.328;10.552;2023-04-19T11:12:11;2.00;;;1.10;;
21272;SDS011;36726;52.328;10.552;2023-04-19T11:14:47;1.95;;;1.25;;
21272;SDS011;36726;52.328;10.552;2023-04-19T11:17:19;4.00;;;1.60;;
21272;SDS011;36726;52.328;10.552;2023-04-19T11:22:31;1.13;;;1.02;;
21272;SDS011;36726;52.328;10.552;2023-04-19T11:25:08;1.50;;;1.10;;
21272;SDS011;36726;52.328;10.552;2023-04-19T11:27:41;2.95;;;1.40;;
21272;SDS011;36726;52.328;10.552;2023-04-19T11:30:13;4.93;;;1.30;;
21272;SDS011;36726;52.328;10.552;2023-04-19T11:35:13;1.33;;;1.00;;
21272;SDS011;36726;52.328;10.552;2023-04-19T11:37:41;1.67;;;1.05;;
21272;SDS011;36726;52.328;10.552;2023-04-19T11:40:08;2.00;;;1.20;;
21272;SDS011;36726;52.328;10.552;2023-04-19T11:42:39;4.07;;;1.30;;
21272;SDS011;36726;52.328;10.552;2023-04-19T11:45:08;8.07;;;1.42;;
21272;SDS011;36726;52.328;10.552;2023-04-19T11:47:47;2.50;;;1.30;;
21272;SDS011;36726;52.328;10.552;2023-04-19T11:55:51;2.05;;;1.10;;
21272;SDS011;36726;52.328;10.552;2023-04-19T11:58:23;2.95;;;1.25;;
21272;SDS011;36726;52.328;10.552;2023-04-19T12:01:18;2.45;;;1.33;;
21272;SDS011;36726;52.328;10.552;2023-04-19T12:03:46;2.63;;;1.38;;
21272;SDS011;36726;52.328;10.552;2023-04-19T12:06:24;3.30;;;1.40;;
21272;SDS011;36726;52.328;10.552;2023-04-19T12:08:53;2.20;;;1.15;;
21272;SDS011;36726;52.328;10.552;2023-04-19T12:11:23;3.38;;;1.20;;
21272;SDS011;36726;52.328;10.552;2023-04-19T12:17:03;3.75;;;1.40;;
21272;SDS011;36726;52.328;10.552;2023-04-19T12:19:34;4.88;;;1.48;;
21272;SDS011;36726;52.328;10.552;2023-04-19T12:22:13;2.42;;;1.35;;
21272;SDS011;36726;52.328;10.552;2023-04-19T12:24:41;2.25;;;1.13;;
21272;SDS011;36726;52.328;10.552;2023-04-19T12:27:08;1.92;;;1.38;;
21272;SDS011;36726;52.328;10.552;2023-04-19T12:29:36;3.90;;;1.60;;
21272;SDS011;36726;52.328;10.552;2023-04-19T12:32:04;2.58;;;1.20;;
21272;SDS011;36726;52.328;10.552;2023-04-19T12:34:31;3.80;;;1.80;;
21272;SDS011;36726;52.328;10.552;2023-04-19T12:36:58;2.92;;;1.67;;
21272;SDS011;36726;52.328;10.552;2023-04-19T12:39:24;2.80;;;1.45;;
21272;SDS011;36726;52.328;10.552;2023-04-19T12:41:51;3.13;;;1.60;;
21272;SDS011;36726;52.328;10.552;2023-04-19T12:44:18;2.20;;;1.48;;
21272;SDS011;36726;52.328;10.552;2023-04-19T12:46:45;2.70;;;1.52;;
21272;SDS011;36726;52.328;10.552;2023-04-19T12:49:11;1.58;;;1.27;;
21272;SDS011;36726;52.328;10.552;2023-04-19T12:51:38;3.90;;;1.45;;
21272;SDS011;36726;52.328;10.552;2023-04-19T12:54:07;4.57;;;1.38;;
21272;SDS011;36726;52.328;10.552;2023-04-19T12:56:34;1.98;;;1.40;;
21272;SDS011;36726;52.328;10.552;2023-04-19T12:59:01;1.77;;;1.20;;
21272;SDS011;36726;52.328;10.552;2023-04-19T13:01:27;5.18;;;1.55;;
21272;SDS011;36726;52.328;10.552;2023-04-19T13:03:54;2.65;;;1.48;;
21272;SDS011;36726;52.328;10.552;2023-04-19T13:06:24;3.03;;;1.63;;
21272;SDS011;36726;52.328;10.552;2023-04-19T13:08:52;2.83;;;1.58;;
21272;SDS011;36726;52.328;10.552;2023-04-19T13:11:20;5.63;;;1.50;;
21272;SDS011;36726;52.328;10.552;2023-04-19T13:13:49;2.65;;;1.55;;
21272;SDS011;36726;52.328;10.552;2023-04-19T13:16:17;4.18;;;1.73;;
21272;SDS011;36726;52.328;10.552;2023-04-19T13:18:44;2.35;;;1.52;;
21272;SDS011;36726;52.328;10.552;2023-04-19T13:21:11;3.13;;;2.08;;
21272;SDS011;36726;52.328;10.552;2023-04-19T13:23:39;3.08;;;1.80;;
21272;SDS011;36726;52.328;10.552;2023-04-19T13:26:05;4.57;;;2.22;;
21272;SDS011;36726;52.328;10.552;2023-04-19T13:28:32;3.33;;;2.10;;
21272;SDS011;36726;52.328;10.552;2023-04-19T13:31:02;3.80;;;1.50;;
21272;SDS011;36726;52.328;10.552;2023-04-19T13:33:29;2.97;;;1.95;;
21272;SDS011;36726;52.328;10.552;2023-04-19T13:35:56;2.30;;;1.55;;
21272;SDS011;36726;52.328;10.552;2023-04-19T13:38:22;2.95;;;1.80;;
21272;SDS011;36726;52.328;10.552;2023-04-19T13:40:50;7.20;;;1.90;;
21272;SDS011;36726;52.328;10.552;2023-04-19T13:43:16;2.05;;;1.58;;
21272;SDS011;36726;52.328;10.552;2023-04-19T13:45:43;2.42;;;1.65;;
21272;SDS011;36726;52.328;10.552;2023-04-19T13:48:09;5.97;;;1.88;;
21272;SDS011;36726;52.328;10.552;2023-04-19T13:50:36;3.60;;;1.80;;
21272;SDS011;36726;52.328;10.552;2023-04-19T13:53:03;2.00;;;1.58;;
21272;SDS011;36726;52.328;10.552;2023-04-19T13:55:29;3.40;;;1.80;;
21272;SDS011;36726;52.328;10.552;2023-04-19T13:57:56;2.70;;;1.88;;
21272;SDS011;36726;52.328;10.552;2023-04-19T14:00:22;2.30;;;1.50;;
21272;SDS011;36726;52.328;10.552;2023-04-19T14:02:49;4.07;;;1.70;;
21272;SDS011;36726;52.328;10.552;2023-04-19T14:05:17;3.70;;;1.60;;
21272;SDS011;36726;52.328;10.552;2023-04-19T14:07:44;4.00;;;1.67;;
21272;SDS011;36726;52.328;10.552;2023-04-19T14:10:13;3.20;;;1.80;;
21272;SDS011;36726;52.328;10.552;2023-04-19T14:12:39;2.75;;;1.85;;
21272;SDS011;36726;52.328;10.552;2023-04-19T14:15:06;2.97;;;1.80;;
21272;SDS011;36726;52.328;10.552;2023-04-19T14:17:33;3.03;;;1.83;;
21272;SDS011;36726;52.328;10.552;2023-04-19T14:20:01;2.45;;;1.60;;
21272;SDS011;36726;52.328;10.552;2023-04-19T14:22:31;1.98;;;1.40;;
21272;SDS011;36726;52.328;10.552;2023-04-19T14:24:57;2.90;;;1.48;;
21272;SDS011;36726;52.328;10.552;2023-04-19T14:27:24;2.33;;;1.58;;
21272;SDS011;36726;52.328;10.552;2023-04-19T14:29:51;4.97;;;1.80;;
21272;SDS011;36726;52.328;10.552;2023-04-19T14:32:18;4.75;;;1.63;;
21272;SDS011;36726;52.328;10.552;2023-04-19T14:34:51;4.30;;;1.83;;
21272;SDS011;36726;52.328;10.552;2023-04-19T14:37:21;6.47;;;1.80;;
21272;SDS011;36726;52.328;10.552;2023-04-19T14:39:48;4.65;;;1.40;;
21272;SDS011;36726;52.328;10.552;2023-04-19T14:42:15;3.30;;;2.00;;
21272;SDS011;36726;52.328;10.552;2023-04-19T14:44:42;2.92;;;1.90;;
21272;SDS011;36726;52.328;10.552;2023-04-19T14:47:09;3.00;;;1.92;;
21272;SDS011;36726;52.328;10.552;2023-04-19T14:49:36;4.50;;;2.05;;
21272;SDS011;36726;52.328;10.552;2023-04-19T14:52:02;2.47;;;1.83;;
21272;SDS011;36726;52.328;10.552;2023-04-19T14:54:29;4.40;;;1.90;;
21272;SDS011;36726;52.328;10.552;2023-04-19T14:56:56;9.30;;;2.08;;
21272;SDS011;36726;52.328;10.552;2023-04-19T14:59:23;3.80;;;1.88;;
21272;SDS011;36726;52.328;10.552;2023-04-19T15:01:49;3.60;;;1.83;;
21272;SDS011;36726;52.328;10.552;2023-04-19T15:07:27;3.28;;;1.80;;
21272;SDS011;36726;52.328;10.552;2023-04-19T15:09:54;4.55;;;1.70;;
21272;SDS011;36726;52.328;10.552;2023-04-19T15:12:21;5.78;;;2.15;;
21272;SDS011;36726;52.328;10.552;2023-04-19T15:14:47;3.42;;;1.77;;